Rms Queen Mary 2 — ZCEF6 — position and weather

sailwx.info

Track history (hours):
 
Tides and Currents Weather Stations Pressure Air Temp Water Temp Dewpoint Dewpoint Depression Visibility Wind Speed Wind Dir Waves Ship Positions

Rms Queen Mary 2

Last reported at 2020-Jan-18 09:00 UTC. Time now 2020-Jan-18 21:23 UTC.
Position N 33°42' E 029°06'.

Length 345 m; draft 10.3 m.

Type: Passenger vessel. MMSI: 310627000.

Wind from 320 at 20 knots

Barometer 1017.9 mb
Air temperature 18.0 ° C
Visibility: greater than 5.4 NM
Dewpoint 10.6 ° C
Water temperature 16.5 ° C

Date/timePositionNaut miles runAvg speedWind from/ knotsBaromVisibWave heightAir tempDewpointWater temp
2020-Jan-18 09:00N 33°42' E 029°06'63418.1 320 / 201017.9 5.4 18.010.616.5
2020-Jan-16 22:00N 37°18' E 016°54'8017.8 360 / 101026.0 5.4 15.0 9.214.7
2020-Jan-16 17:30N 38°08' E 015°35'4 8.4
2020-Jan-16 17:00N 38°12' E 015°34'27 2.1
2020-Jan-16 04:30N 38°19' E 015°01'1020.5
2020-Jan-16 04:01N 38°18' E 014°48'2323.0
2020-Jan-16 03:00N 38°19' E 014°18'2122.8
2020-Jan-16 02:06N 38°19' E 013°52'1323.0
2020-Jan-16 01:30N 38°19' E 013°35'4522.4
2020-Jan-15 23:30N 38°18' E 012°38'3020.0
2020-Jan-15 22:00N 38°12' E 012°00'55022.9 080 / 111029.110.8 15.0 9.214.5
2020-Jan-14 22:00N 36°42' E 000°36'25322.9 190 / 101024.610.8 15.0 9.214.0
2020-Jan-14 10:57N 36°04' W 004°35'2122.8
2020-Jan-14 10:00N 36°01' W 005°01'11660.3
2020-Jan-14 10:00N 36°00' W 004°48'25618.9 310 / 41025.2 5.4 15.510.815.0
2020-Jan-13 20:30N 37°60' W 009°31'4317.1
2020-Jan-13 18:00N 38°41' W 009°17'7 7.2
2020-Jan-13 17:00N 38°43' W 009°08'0 0.0
2020-Jan-13 12:00N 38°43' W 009°08'0 0.0
2020-Jan-13 11:00N 38°43' W 009°08'0 0.0
2020-Jan-13 08:00N 38°43' W 009°08'5 3.7
2020-Jan-13 06:30N 38°41' W 009°14'2013.3
2020-Jan-13 05:00N 38°34' W 009°38'714.4
2020-Jan-13 04:30N 38°34' W 009°47'816.0
2020-Jan-13 04:00N 38°34' W 009°58'713.5
2020-Jan-13 03:30N 38°38' W 010°04'2818.4
2020-Jan-13 02:00N 39°06' W 010°06'1018.9
2020-Jan-13 01:30N 39°16' W 010°06'3815.4
2020-Jan-12 23:00N 39°54' W 010°06'33817.8 220 / 71029.7 5.4 13.0 6.814.0
2020-Jan-12 04:00N 45°24' W 008°24'31317.9 250 / 251026.5 5.4 14.012.211.7
2020-Jan-11 10:34N 49°38' W 003°54'7017.1
2020-Jan-11 06:27N 50°08' W 002°15'5017.1
2020-Jan-11 03:30N 50°31' W 001°05'917.4
2020-Jan-11 03:00N 50°37' W 000°55'4 8.1
2020-Jan-11 02:30N 50°41' W 000°57'1515.3
2020-Jan-11 01:30N 50°47' W 001°19'8 4.5
2020-Jan-10 23:50N 50°54' W 001°24'0 0.0
2020-Jan-10 23:26N 50°54' W 001°24'0 0.0
2020-Jan-10 17:29N 50°54' W 001°24'0 0.0
2020-Jan-10 16:59N 50°54' W 001°24'0 0.0
2020-Jan-10 15:26N 50°54' W 001°24'0 0.0
2020-Jan-10 12:30N 50°54' W 001°24'2010.1
2020-Jan-10 10:30N 50°42' W 000°57'4019.5
2020-Jan-10 08:28N 50°21' W 001°51'2226.7
2020-Jan-10 07:39N 50°15' W 002°23'426.6
2020-Jan-10 07:30N 50°14' W 002°29'1326.3
2020-Jan-10 07:01N 50°11' W 002°49'1325.8
2020-Jan-10 06:31N 50°08' W 003°08'  
Track history (hours):
 
Tides and Currents Weather Stations Pressure Air Temp Water Temp Dewpoint Dewpoint Depression Visibility Wind Speed Wind Dir Waves Ship Positions

Rms Queen Mary 2

Last reported at 2020-Jan-18 09:00 UTC. Time now 2020-Jan-18 21:23 UTC.
Position N 33°42' E 029°06'.

Length 345 m; draft 10.3 m.

Type: Passenger vessel. MMSI: 310627000.

Wind from 320 at 20 knots

Barometer 1017.9 mb
Air temperature 18.0 ° C
Visibility: greater than 5.4 NM
Dewpoint 10.6 ° C
Water temperature 16.5 ° C

Date/timePositionNaut miles runAvg speedWind from/ knotsBaromVisibWave heightAir tempDewpointWater temp
2020-Jan-18 09:00N 33°42' E 029°06'63418.1 320 / 201017.9 5.4 18.010.616.5
2020-Jan-16 22:00N 37°18' E 016°54'8017.8 360 / 101026.0 5.4 15.0 9.214.7
2020-Jan-16 17:30N 38°08' E 015°35'4 8.4
2020-Jan-16 17:00N 38°12' E 015°34'27 2.1
2020-Jan-16 04:30N 38°19' E 015°01'1020.5
2020-Jan-16 04:01N 38°18' E 014°48'2323.0
2020-Jan-16 03:00N 38°19' E 014°18'2122.8
2020-Jan-16 02:06N 38°19' E 013°52'1323.0
2020-Jan-16 01:30N 38°19' E 013°35'4522.4
2020-Jan-15 23:30N 38°18' E 012°38'3020.0
2020-Jan-15 22:00N 38°12' E 012°00'55022.9 080 / 111029.110.8 15.0 9.214.5
2020-Jan-14 22:00N 36°42' E 000°36'25322.9 190 / 101024.610.8 15.0 9.214.0
2020-Jan-14 10:57N 36°04' W 004°35'2122.8
2020-Jan-14 10:00N 36°01' W 005°01'11660.3
2020-Jan-14 10:00N 36°00' W 004°48'25618.9 310 / 41025.2 5.4 15.510.815.0
2020-Jan-13 20:30N 37°60' W 009°31'4317.1
2020-Jan-13 18:00N 38°41' W 009°17'7 7.2
2020-Jan-13 17:00N 38°43' W 009°08'0 0.0
2020-Jan-13 12:00N 38°43' W 009°08'0 0.0
2020-Jan-13 11:00N 38°43' W 009°08'0 0.0
2020-Jan-13 08:00N 38°43' W 009°08'5 3.7
2020-Jan-13 06:30N 38°41' W 009°14'2013.3
2020-Jan-13 05:00N 38°34' W 009°38'714.4
2020-Jan-13 04:30N 38°34' W 009°47'816.0
2020-Jan-13 04:00N 38°34' W 009°58'713.5
2020-Jan-13 03:30N 38°38' W 010°04'2818.4
2020-Jan-13 02:00N 39°06' W 010°06'1018.9
2020-Jan-13 01:30N 39°16' W 010°06'3815.4
2020-Jan-12 23:00N 39°54' W 010°06'33817.8 220 / 71029.7 5.4 13.0 6.814.0
2020-Jan-12 04:00N 45°24' W 008°24'31317.9 250 / 251026.5 5.4 14.012.211.7
2020-Jan-11 10:34N 49°38' W 003°54'7017.1
2020-Jan-11 06:27N 50°08' W 002°15'5017.1
2020-Jan-11 03:30N 50°31' W 001°05'917.4
2020-Jan-11 03:00N 50°37' W 000°55'4 8.1
2020-Jan-11 02:30N 50°41' W 000°57'1515.3
2020-Jan-11 01:30N 50°47' W 001°19'8 4.5
2020-Jan-10 23:50N 50°54' W 001°24'0 0.0
2020-Jan-10 23:26N 50°54' W 001°24'0 0.0
2020-Jan-10 17:29N 50°54' W 001°24'0 0.0
2020-Jan-10 16:59N 50°54' W 001°24'0 0.0
2020-Jan-10 15:26N 50°54' W 001°24'0 0.0
2020-Jan-10 12:30N 50°54' W 001°24'2010.1
2020-Jan-10 10:30N 50°42' W 000°57'4019.5
2020-Jan-10 08:28N 50°21' W 001°51'2226.7
2020-Jan-10 07:39N 50°15' W 002°23'426.6
2020-Jan-10 07:30N 50°14' W 002°29'1326.3
2020-Jan-10 07:01N 50°11' W 002°49'1325.8
2020-Jan-10 06:31N 50°08' W 003°08'  

Dump ship's entire track history